Thursday, October 19, 2017, 7:09 AM EDT
Back to Local

KAKR, Akron Fulton International

Location: Akron, OH, United States Lat: 41.033
Local Time: 7:09 AM EDT (11:09 GMT) Lon: -81.467
Time Zone: US/Eastern Elev: 1069 ft

Show me the last for .
Show Coded

Time T Td Feel RH Dir Speed Gust Alt SLP Vis Weather Sky Remarks
2017-10-19 06:54 51 43 - 73 200° 9 - 30.17 30.16 10 CLR None
2017-10-19 05:54 51 42 - 71 200° 8 - 30.17 30.17 10 CLR None
2017-10-19 04:54 51 42 - 71 210° 8 - 30.18 30.17 10 CLR None
2017-10-19 03:54 50 41 48 71 200° 6 - 30.18 30.17 10 CLR None
2017-10-19 02:54 50 40 47 68 200° 7 - 30.18 30.17 10 CLR None
2017-10-19 01:54 51 40 - 65 210° 7 - 30.19 30.18 10 CLR 6-hr Min Temp (2am): 51.1°F
6-hr Max Temp (2am): 61.0°F
2017-10-19 00:54 54 40 - 58 200° 9 - 30.17 30.16 10 CLR 24-hr Min Temp (1am): 41.0°F
24-hr Max Temp (1am): 69.1°F
2017-10-18 23:54 55 39 - 54 200° 8 - 30.18 30.17 10 CLR None
2017-10-18 22:54 57 39 - 50 190° 8 - 30.18 30.18 10 CLR None
2017-10-18 21:54 58 40 - 51 180° 8 - 30.19 30.18 10 CLR None
2017-10-18 20:54 59 41 - 51 170° 6 - 30.20 30.20 10 CLR None
2017-10-18 19:54 58 42 - 55 160° 6 - 30.21 30.21 10 CLR 6-hr Min Temp (8pm): 55.9°F
6-hr Max Temp (8pm): 69.1°F
2017-10-18 18:54 63 43 - 48 160° 6 - 30.20 30.20 10 CLR None
2017-10-18 17:54 66 44 - 44 180° 8 - 30.20 30.20 10 CLR None
2017-10-18 16:54 69 44 - 40 220° 8 - 30.22 30.21 10 CLR None
2017-10-18 15:54 69 43 - 38 210° 12 17 30.22 30.22 10 CLR None
2017-10-18 14:54 69 43 - 38 190° 12 17 30.25 30.24 10 CLR None
2017-10-18 13:54 67 44 - 43 200° 10 - 30.27 30.27 10 CLR 6-hr Min Temp (2pm): 42.1°F
6-hr Max Temp (2pm): 66.9°F
2017-10-18 12:54 66 44 - 44 210° 12 - 30.30 30.30 10 CLR None
2017-10-18 11:54 64 42 - 44 230° 13 16 30.32 30.32 10 CLR None
2017-10-18 10:54 61 43 - 51 220° 6 - 30.33 30.32 10 CLR None
2017-10-18 09:54 56 43 - 61 190° 5 - 30.33 30.33 10 CLR None
2017-10-18 08:54 49 42 - 77 - Calm - 30.33 30.34 10 CLR None
2017-10-18 07:54 43 38 - 82 - Calm - 30.31 30.32 10 CLR 6-hr Min Temp (8am): 41.0°F
6-hr Max Temp (8am): 50.0°F

Support USWX by starting your Amazon purchase here.